sensor_id;sensor_type;location;lat;lon;timestamp;P1;durP1;ratioP1;P2;durP2;ratioP2
51852;SDS011;37894;53.172;6.598;2022-07-24T00:02:07;8.43;;;3.95;;
51852;SDS011;37894;53.172;6.598;2022-07-24T00:04:33;5.88;;;3.70;;
51852;SDS011;37894;53.172;6.598;2022-07-24T00:06:58;5.85;;;3.67;;
51852;SDS011;37894;53.172;6.598;2022-07-24T00:09:24;6.30;;;3.85;;
51852;SDS011;37894;53.172;6.598;2022-07-24T00:11:50;6.25;;;4.07;;
51852;SDS011;37894;53.172;6.598;2022-07-24T00:14:16;5.43;;;3.70;;
51852;SDS011;37894;53.172;6.598;2022-07-24T00:16:41;5.95;;;4.00;;
51852;SDS011;37894;53.172;6.598;2022-07-24T00:19:07;6.60;;;3.97;;
51852;SDS011;37894;53.172;6.598;2022-07-24T00:21:33;6.90;;;4.00;;
51852;SDS011;37894;53.172;6.598;2022-07-24T00:23:58;7.00;;;4.10;;
51852;SDS011;37894;53.172;6.598;2022-07-24T00:26:24;6.55;;;4.10;;
51852;SDS011;37894;53.172;6.598;2022-07-24T00:28:49;5.75;;;4.20;;
51852;SDS011;37894;53.172;6.598;2022-07-24T00:31:15;6.32;;;4.18;;
51852;SDS011;37894;53.172;6.598;2022-07-24T00:33:41;7.90;;;3.95;;
51852;SDS011;37894;53.172;6.598;2022-07-24T00:36:07;5.38;;;4.25;;
51852;SDS011;37894;53.172;6.598;2022-07-24T00:38:33;7.20;;;4.30;;
51852;SDS011;37894;53.172;6.598;2022-07-24T00:40:59;6.88;;;4.25;;
51852;SDS011;37894;53.172;6.598;2022-07-24T00:43:24;6.63;;;4.20;;
51852;SDS011;37894;53.172;6.598;2022-07-24T00:45:50;5.68;;;4.35;;
51852;SDS011;37894;53.172;6.598;2022-07-24T00:48:15;7.18;;;4.50;;
51852;SDS011;37894;53.172;6.598;2022-07-24T00:50:42;6.43;;;4.15;;
51852;SDS011;37894;53.172;6.598;2022-07-24T00:53:08;7.43;;;4.30;;
51852;SDS011;37894;53.172;6.598;2022-07-24T00:55:34;5.03;;;3.85;;
51852;SDS011;37894;53.172;6.598;2022-07-24T00:58:00;5.85;;;3.78;;
51852;SDS011;37894;53.172;6.598;2022-07-24T01:00:26;6.32;;;4.20;;
51852;SDS011;37894;53.172;6.598;2022-07-24T01:02:52;5.68;;;4.18;;
51852;SDS011;37894;53.172;6.598;2022-07-24T01:05:18;6.85;;;4.10;;
51852;SDS011;37894;53.172;6.598;2022-07-24T01:07:44;6.22;;;4.03;;
51852;SDS011;37894;53.172;6.598;2022-07-24T01:10:10;5.95;;;4.30;;
51852;SDS011;37894;53.172;6.598;2022-07-24T01:12:37;6.22;;;3.88;;
51852;SDS011;37894;53.172;6.598;2022-07-24T01:15:04;5.32;;;3.90;;
51852;SDS011;37894;53.172;6.598;2022-07-24T01:17:33;7.95;;;3.88;;
51852;SDS011;37894;53.172;6.598;2022-07-24T01:20:04;4.97;;;3.97;;
51852;SDS011;37894;53.172;6.598;2022-07-24T01:22:30;5.97;;;3.90;;
51852;SDS011;37894;53.172;6.598;2022-07-24T01:24:56;5.45;;;3.97;;
51852;SDS011;37894;53.172;6.598;2022-07-24T01:27:22;9.50;;;4.05;;
51852;SDS011;37894;53.172;6.598;2022-07-24T01:29:48;5.80;;;3.90;;
51852;SDS011;37894;53.172;6.598;2022-07-24T01:32:14;6.13;;;3.80;;
51852;SDS011;37894;53.172;6.598;2022-07-24T01:34:40;5.22;;;3.67;;
51852;SDS011;37894;53.172;6.598;2022-07-24T01:37:06;5.35;;;3.83;;
51852;SDS011;37894;53.172;6.598;2022-07-24T01:39:32;6.15;;;4.05;;
51852;SDS011;37894;53.172;6.598;2022-07-24T01:41:58;6.88;;;3.55;;
51852;SDS011;37894;53.172;6.598;2022-07-24T01:44:23;6.28;;;3.90;;
51852;SDS011;37894;53.172;6.598;2022-07-24T01:46:49;6.88;;;4.00;;
51852;SDS011;37894;53.172;6.598;2022-07-24T01:49:15;5.28;;;3.55;;
51852;SDS011;37894;53.172;6.598;2022-07-24T01:51:40;5.00;;;3.75;;
51852;SDS011;37894;53.172;6.598;2022-07-24T01:54:06;5.93;;;3.85;;
51852;SDS011;37894;53.172;6.598;2022-07-24T01:56:32;5.22;;;4.05;;
51852;SDS011;37894;53.172;6.598;2022-07-24T01:58:58;5.80;;;3.78;;
51852;SDS011;37894;53.172;6.598;2022-07-24T02:01:24;5.63;;;3.47;;
51852;SDS011;37894;53.172;6.598;2022-07-24T02:03:51;6.75;;;3.80;;
51852;SDS011;37894;53.172;6.598;2022-07-24T02:06:16;6.38;;;3.60;;
51852;SDS011;37894;53.172;6.598;2022-07-24T02:08:43;6.28;;;3.78;;
51852;SDS011;37894;53.172;6.598;2022-07-24T02:11:09;5.78;;;3.60;;
51852;SDS011;37894;53.172;6.598;2022-07-24T02:13:35;5.55;;;3.83;;
51852;SDS011;37894;53.172;6.598;2022-07-24T02:16:00;5.00;;;3.55;;
51852;SDS011;37894;53.172;6.598;2022-07-24T02:18:27;5.75;;;3.67;;
51852;SDS011;37894;53.172;6.598;2022-07-24T02:20:52;6.78;;;4.32;;
51852;SDS011;37894;53.172;6.598;2022-07-24T02:23:18;6.68;;;4.28;;
51852;SDS011;37894;53.172;6.598;2022-07-24T02:25:48;7.30;;;3.85;;
51852;SDS011;37894;53.172;6.598;2022-07-24T02:28:14;5.70;;;4.18;;
51852;SDS011;37894;53.172;6.598;2022-07-24T02:30:41;6.22;;;4.22;;
51852;SDS011;37894;53.172;6.598;2022-07-24T02:33:07;5.93;;;4.10;;
51852;SDS011;37894;53.172;6.598;2022-07-24T02:35:33;6.05;;;4.28;;
51852;SDS011;37894;53.172;6.598;2022-07-24T02:38:00;5.90;;;4.15;;
51852;SDS011;37894;53.172;6.598;2022-07-24T02:40:26;5.95;;;3.85;;
51852;SDS011;37894;53.172;6.598;2022-07-24T02:42:51;6.82;;;4.07;;
51852;SDS011;37894;53.172;6.598;2022-07-24T02:45:17;6.65;;;4.60;;
51852;SDS011;37894;53.172;6.598;2022-07-24T02:47:47;5.95;;;4.10;;
51852;SDS011;37894;53.172;6.598;2022-07-24T02:50:13;7.25;;;4.20;;
51852;SDS011;37894;53.172;6.598;2022-07-24T02:52:40;5.82;;;4.70;;
51852;SDS011;37894;53.172;6.598;2022-07-24T02:55:05;6.55;;;4.70;;
51852;SDS011;37894;53.172;6.598;2022-07-24T02:57:31;5.90;;;4.53;;
51852;SDS011;37894;53.172;6.598;2022-07-24T02:59:57;6.20;;;4.25;;
51852;SDS011;37894;53.172;6.598;2022-07-24T03:02:22;6.88;;;5.13;;
51852;SDS011;37894;53.172;6.598;2022-07-24T03:04:48;7.15;;;4.82;;
51852;SDS011;37894;53.172;6.598;2022-07-24T03:07:14;6.53;;;4.63;;
51852;SDS011;37894;53.172;6.598;2022-07-24T03:09:39;6.40;;;4.57;;
51852;SDS011;37894;53.172;6.598;2022-07-24T03:12:05;7.07;;;4.43;;
51852;SDS011;37894;53.172;6.598;2022-07-24T03:14:31;6.82;;;4.70;;
51852;SDS011;37894;53.172;6.598;2022-07-24T03:16:56;5.97;;;4.65;;
51852;SDS011;37894;53.172;6.598;2022-07-24T03:19:22;9.70;;;5.22;;
51852;SDS011;37894;53.172;6.598;2022-07-24T03:21:48;9.50;;;5.30;;
51852;SDS011;37894;53.172;6.598;2022-07-24T03:24:13;8.45;;;5.30;;
51852;SDS011;37894;53.172;6.598;2022-07-24T03:26:40;6.97;;;5.03;;
51852;SDS011;37894;53.172;6.598;2022-07-24T03:29:05;7.55;;;5.53;;
51852;SDS011;37894;53.172;6.598;2022-07-24T03:31:31;7.25;;;5.28;;
51852;SDS011;37894;53.172;6.598;2022-07-24T03:33:57;9.23;;;5.57;;
51852;SDS011;37894;53.172;6.598;2022-07-24T03:36:22;7.38;;;5.05;;
51852;SDS011;37894;53.172;6.598;2022-07-24T03:38:48;8.85;;;5.32;;
51852;SDS011;37894;53.172;6.598;2022-07-24T03:41:13;7.85;;;5.53;;
51852;SDS011;37894;53.172;6.598;2022-07-24T03:43:39;6.40;;;4.75;;
51852;SDS011;37894;53.172;6.598;2022-07-24T03:46:05;8.57;;;5.50;;
51852;SDS011;37894;53.172;6.598;2022-07-24T03:48:30;7.00;;;5.38;;
51852;SDS011;37894;53.172;6.598;2022-07-24T03:50:56;7.55;;;5.97;;
51852;SDS011;37894;53.172;6.598;2022-07-24T03:53:22;7.90;;;5.88;;
51852;SDS011;37894;53.172;6.598;2022-07-24T03:55:47;7.30;;;5.80;;
51852;SDS011;37894;53.172;6.598;2022-07-24T03:58:13;9.23;;;6.28;;
51852;SDS011;37894;53.172;6.598;2022-07-24T04:00:38;8.15;;;5.40;;
51852;SDS011;37894;53.172;6.598;2022-07-24T04:03:04;8.38;;;6.40;;
51852;SDS011;37894;53.172;6.598;2022-07-24T04:05:30;8.45;;;5.97;;
51852;SDS011;37894;53.172;6.598;2022-07-24T04:07:55;10.35;;;6.13;;
51852;SDS011;37894;53.172;6.598;2022-07-24T04:10:21;8.27;;;6.00;;
51852;SDS011;37894;53.172;6.598;2022-07-24T04:12:47;9.55;;;6.72;;
51852;SDS011;37894;53.172;6.598;2022-07-24T04:15:12;7.35;;;5.82;;
51852;SDS011;37894;53.172;6.598;2022-07-24T04:17:39;8.18;;;6.25;;
51852;SDS011;37894;53.172;6.598;2022-07-24T04:20:06;8.27;;;6.30;;
51852;SDS011;37894;53.172;6.598;2022-07-24T04:22:33;8.98;;;6.13;;
51852;SDS011;37894;53.172;6.598;2022-07-24T04:24:59;8.77;;;5.90;;
51852;SDS011;37894;53.172;6.598;2022-07-24T04:27:24;7.32;;;5.82;;
51852;SDS011;37894;53.172;6.598;2022-07-24T04:29:50;8.63;;;5.88;;
51852;SDS011;37894;53.172;6.598;2022-07-24T04:32:16;7.50;;;6.10;;
51852;SDS011;37894;53.172;6.598;2022-07-24T04:34:42;7.90;;;6.00;;
51852;SDS011;37894;53.172;6.598;2022-07-24T04:37:08;10.18;;;7.20;;
51852;SDS011;37894;53.172;6.598;2022-07-24T04:39:33;8.43;;;6.13;;
51852;SDS011;37894;53.172;6.598;2022-07-24T04:41:59;8.85;;;6.18;;
51852;SDS011;37894;53.172;6.598;2022-07-24T04:44:25;9.55;;;6.40;;
51852;SDS011;37894;53.172;6.598;2022-07-24T04:46:51;7.18;;;5.78;;
51852;SDS011;37894;53.172;6.598;2022-07-24T04:49:16;8.55;;;6.53;;
51852;SDS011;37894;53.172;6.598;2022-07-24T04:51:42;7.72;;;5.90;;
51852;SDS011;37894;53.172;6.598;2022-07-24T04:54:07;9.90;;;5.95;;
51852;SDS011;37894;53.172;6.598;2022-07-24T04:56:33;9.73;;;6.10;;
51852;SDS011;37894;53.172;6.598;2022-07-24T04:58:59;9.48;;;6.32;;
51852;SDS011;37894;53.172;6.598;2022-07-24T05:01:27;11.65;;;6.30;;
51852;SDS011;37894;53.172;6.598;2022-07-24T05:03:53;10.43;;;6.13;;
51852;SDS011;37894;53.172;6.598;2022-07-24T05:06:21;8.15;;;6.07;;
51852;SDS011;37894;53.172;6.598;2022-07-24T05:08:50;11.70;;;5.63;;
51852;SDS011;37894;53.172;6.598;2022-07-24T05:11:16;9.32;;;6.68;;
51852;SDS011;37894;53.172;6.598;2022-07-24T05:13:41;8.63;;;6.38;;
51852;SDS011;37894;53.172;6.598;2022-07-24T05:16:07;8.38;;;6.40;;
51852;SDS011;37894;53.172;6.598;2022-07-24T05:18:33;7.47;;;6.13;;
51852;SDS011;37894;53.172;6.598;2022-07-24T05:20:59;10.68;;;6.43;;
51852;SDS011;37894;53.172;6.598;2022-07-24T05:23:24;7.95;;;6.00;;
51852;SDS011;37894;53.172;6.598;2022-07-24T05:25:50;10.15;;;6.25;;
51852;SDS011;37894;53.172;6.598;2022-07-24T05:28:16;7.70;;;5.68;;
51852;SDS011;37894;53.172;6.598;2022-07-24T05:30:42;7.90;;;6.45;;
51852;SDS011;37894;53.172;6.598;2022-07-24T05:33:08;7.70;;;5.82;;
51852;SDS011;37894;53.172;6.598;2022-07-24T05:35:34;7.65;;;6.13;;
51852;SDS011;37894;53.172;6.598;2022-07-24T05:37:59;8.95;;;6.20;;
51852;SDS011;37894;53.172;6.598;2022-07-24T05:40:25;9.02;;;6.32;;
51852;SDS011;37894;53.172;6.598;2022-07-24T05:42:51;9.82;;;6.10;;
51852;SDS011;37894;53.172;6.598;2022-07-24T05:45:16;9.50;;;6.60;;
51852;SDS011;37894;53.172;6.598;2022-07-24T05:47:42;11.40;;;6.32;;
51852;SDS011;37894;53.172;6.598;2022-07-24T05:50:09;10.63;;;5.90;;
51852;SDS011;37894;53.172;6.598;2022-07-24T05:52:36;8.63;;;6.20;;
51852;SDS011;37894;53.172;6.598;2022-07-24T05:55:02;11.40;;;6.28;;
51852;SDS011;37894;53.172;6.598;2022-07-24T05:57:28;9.25;;;6.50;;
51852;SDS011;37894;53.172;6.598;2022-07-24T05:59:54;8.45;;;6.32;;
51852;SDS011;37894;53.172;6.598;2022-07-24T06:02:19;9.32;;;6.60;;
51852;SDS011;37894;53.172;6.598;2022-07-24T06:04:45;11.13;;;6.88;;
51852;SDS011;37894;53.172;6.598;2022-07-24T06:07:11;8.85;;;6.75;;
51852;SDS011;37894;53.172;6.598;2022-07-24T06:09:37;9.05;;;6.70;;
51852;SDS011;37894;53.172;6.598;2022-07-24T06:12:04;9.50;;;7.50;;
51852;SDS011;37894;53.172;6.598;2022-07-24T06:14:30;8.98;;;7.20;;
51852;SDS011;37894;53.172;6.598;2022-07-24T06:16:57;11.18;;;7.15;;
51852;SDS011;37894;53.172;6.598;2022-07-24T06:19:23;12.93;;;7.38;;
51852;SDS011;37894;53.172;6.598;2022-07-24T06:21:49;12.63;;;7.40;;
51852;SDS011;37894;53.172;6.598;2022-07-24T06:24:14;19.58;;;9.63;;
51852;SDS011;37894;53.172;6.598;2022-07-24T06:26:40;11.25;;;7.10;;
51852;SDS011;37894;53.172;6.598;2022-07-24T06:29:06;14.02;;;8.70;;
51852;SDS011;37894;53.172;6.598;2022-07-24T06:31:31;9.57;;;7.10;;
51852;SDS011;37894;53.172;6.598;2022-07-24T06:33:57;12.25;;;8.23;;
51852;SDS011;37894;53.172;6.598;2022-07-24T06:36:22;12.07;;;7.85;;
51852;SDS011;37894;53.172;6.598;2022-07-24T06:38:48;15.90;;;11.13;;
51852;SDS011;37894;53.172;6.598;2022-07-24T06:41:14;13.32;;;9.18;;
51852;SDS011;37894;53.172;6.598;2022-07-24T06:43:40;17.98;;;9.70;;
51852;SDS011;37894;53.172;6.598;2022-07-24T06:46:06;14.30;;;9.10;;
51852;SDS011;37894;53.172;6.598;2022-07-24T06:48:31;14.70;;;9.35;;
51852;SDS011;37894;53.172;6.598;2022-07-24T06:50:58;13.77;;;9.30;;
51852;SDS011;37894;53.172;6.598;2022-07-24T06:53:24;13.05;;;8.35;;
51852;SDS011;37894;53.172;6.598;2022-07-24T06:55:50;12.95;;;9.20;;
51852;SDS011;37894;53.172;6.598;2022-07-24T06:58:18;12.80;;;9.63;;
51852;SDS011;37894;53.172;6.598;2022-07-24T07:00:45;12.93;;;9.40;;
51852;SDS011;37894;53.172;6.598;2022-07-24T07:03:11;13.02;;;9.30;;
51852;SDS011;37894;53.172;6.598;2022-07-24T07:05:37;13.13;;;10.07;;
51852;SDS011;37894;53.172;6.598;2022-07-24T07:08:03;13.10;;;10.10;;
51852;SDS011;37894;53.172;6.598;2022-07-24T07:10:29;12.93;;;9.50;;
51852;SDS011;37894;53.172;6.598;2022-07-24T07:12:54;14.32;;;9.65;;
51852;SDS011;37894;53.172;6.598;2022-07-24T07:15:20;13.98;;;9.82;;
51852;SDS011;37894;53.172;6.598;2022-07-24T07:17:46;14.30;;;10.15;;
51852;SDS011;37894;53.172;6.598;2022-07-24T07:20:12;13.95;;;10.80;;
51852;SDS011;37894;53.172;6.598;2022-07-24T07:22:38;14.05;;;10.70;;
51852;SDS011;37894;53.172;6.598;2022-07-24T07:25:05;18.25;;;10.68;;
51852;SDS011;37894;53.172;6.598;2022-07-24T07:27:31;17.10;;;11.25;;
51852;SDS011;37894;53.172;6.598;2022-07-24T07:29:57;13.25;;;10.07;;
51852;SDS011;37894;53.172;6.598;2022-07-24T07:32:23;13.80;;;9.68;;
51852;SDS011;37894;53.172;6.598;2022-07-24T07:34:49;16.30;;;9.73;;
51852;SDS011;37894;53.172;6.598;2022-07-24T07:37:15;12.43;;;9.27;;
51852;SDS011;37894;53.172;6.598;2022-07-24T07:39:41;14.23;;;9.80;;
51852;SDS011;37894;53.172;6.598;2022-07-24T07:42:06;13.13;;;9.00;;
51852;SDS011;37894;53.172;6.598;2022-07-24T07:44:32;12.30;;;7.65;;
51852;SDS011;37894;53.172;6.598;2022-07-24T07:46:58;10.95;;;7.72;;
51852;SDS011;37894;53.172;6.598;2022-07-24T07:49:23;10.50;;;7.65;;
51852;SDS011;37894;53.172;6.598;2022-07-24T07:51:49;10.23;;;7.38;;
51852;SDS011;37894;53.172;6.598;2022-07-24T07:54:16;12.35;;;6.85;;
51852;SDS011;37894;53.172;6.598;2022-07-24T07:56:42;8.68;;;5.95;;
51852;SDS011;37894;53.172;6.598;2022-07-24T07:59:08;8.68;;;4.97;;
51852;SDS011;37894;53.172;6.598;2022-07-24T08:01:34;8.68;;;4.97;;
51852;SDS011;37894;53.172;6.598;2022-07-24T08:04:00;9.10;;;4.72;;
51852;SDS011;37894;53.172;6.598;2022-07-24T08:06:26;7.57;;;4.82;;
51852;SDS011;37894;53.172;6.598;2022-07-24T08:08:52;9.55;;;5.18;;
51852;SDS011;37894;53.172;6.598;2022-07-24T08:11:17;7.28;;;4.65;;
51852;SDS011;37894;53.172;6.598;2022-07-24T08:13:43;5.82;;;4.10;;
51852;SDS011;37894;53.172;6.598;2022-07-24T08:16:09;6.88;;;3.33;;
51852;SDS011;37894;53.172;6.598;2022-07-24T08:18:34;4.22;;;3.25;;
51852;SDS011;37894;53.172;6.598;2022-07-24T08:21:00;5.38;;;3.50;;
51852;SDS011;37894;53.172;6.598;2022-07-24T08:23:26;4.22;;;2.80;;
51852;SDS011;37894;53.172;6.598;2022-07-24T08:25:51;4.25;;;2.80;;
51852;SDS011;37894;53.172;6.598;2022-07-24T08:28:17;6.10;;;3.15;;
51852;SDS011;37894;53.172;6.598;2022-07-24T08:30:43;5.00;;;2.85;;
51852;SDS011;37894;53.172;6.598;2022-07-24T08:33:08;5.20;;;2.70;;
51852;SDS011;37894;53.172;6.598;2022-07-24T08:35:34;5.20;;;3.30;;
51852;SDS011;37894;53.172;6.598;2022-07-24T08:38:00;6.65;;;3.00;;
51852;SDS011;37894;53.172;6.598;2022-07-24T08:40:30;5.60;;;3.35;;
51852;SDS011;37894;53.172;6.598;2022-07-24T08:42:59;4.30;;;3.30;;
51852;SDS011;37894;53.172;6.598;2022-07-24T08:45:26;3.90;;;2.67;;
51852;SDS011;37894;53.172;6.598;2022-07-24T08:47:52;4.43;;;3.03;;
51852;SDS011;37894;53.172;6.598;2022-07-24T08:50:20;4.72;;;3.13;;
51852;SDS011;37894;53.172;6.598;2022-07-24T08:52:46;5.78;;;3.20;;
51852;SDS011;37894;53.172;6.598;2022-07-24T08:55:13;5.00;;;3.15;;
51852;SDS011;37894;53.172;6.598;2022-07-24T08:57:39;4.05;;;3.00;;
51852;SDS011;37894;53.172;6.598;2022-07-24T09:00:06;5.18;;;3.33;;
51852;SDS011;37894;53.172;6.598;2022-07-24T09:02:32;5.18;;;3.30;;
51852;SDS011;37894;53.172;6.598;2022-07-24T09:04:59;6.90;;;2.95;;
51852;SDS011;37894;53.172;6.598;2022-07-24T09:07:27;6.20;;;3.00;;
51852;SDS011;37894;53.172;6.598;2022-07-24T09:10:01;4.28;;;2.85;;
51852;SDS011;37894;53.172;6.598;2022-07-24T09:12:32;4.88;;;3.25;;
51852;SDS011;37894;53.172;6.598;2022-07-24T09:15:00;5.18;;;3.25;;
51852;SDS011;37894;53.172;6.598;2022-07-24T09:17:26;4.80;;;3.45;;
51852;SDS011;37894;53.172;6.598;2022-07-24T09:25:09;4.07;;;3.05;;
51852;SDS011;37894;53.172;6.598;2022-07-24T09:27:36;7.05;;;3.30;;
51852;SDS011;37894;53.172;6.598;2022-07-24T09:30:04;5.85;;;2.78;;
51852;SDS011;37894;53.172;6.598;2022-07-24T09:32:31;4.30;;;3.13;;
51852;SDS011;37894;53.172;6.598;2022-07-24T09:34:56;4.47;;;3.05;;
51852;SDS011;37894;53.172;6.598;2022-07-24T09:37:26;5.82;;;3.30;;
51852;SDS011;37894;53.172;6.598;2022-07-24T09:39:52;6.25;;;3.15;;
51852;SDS011;37894;53.172;6.598;2022-07-24T09:42:30;5.40;;;3.15;;
51852;SDS011;37894;53.172;6.598;2022-07-24T09:44:59;6.90;;;3.83;;
51852;SDS011;37894;53.172;6.598;2022-07-24T09:47:24;6.25;;;3.85;;
51852;SDS011;37894;53.172;6.598;2022-07-24T09:49:53;5.43;;;3.00;;
51852;SDS011;37894;53.172;6.598;2022-07-24T09:52:34;4.97;;;2.97;;
51852;SDS011;37894;53.172;6.598;2022-07-24T09:55:01;6.70;;;2.85;;
51852;SDS011;37894;53.172;6.598;2022-07-24T09:57:28;5.45;;;2.88;;
51852;SDS011;37894;53.172;6.598;2022-07-24T09:59:58;7.72;;;3.10;;
51852;SDS011;37894;53.172;6.598;2022-07-24T10:02:26;5.22;;;2.83;;
51852;SDS011;37894;53.172;6.598;2022-07-24T10:04:55;5.28;;;3.25;;
51852;SDS011;37894;53.172;6.598;2022-07-24T10:07:23;8.13;;;2.88;;
51852;SDS011;37894;53.172;6.598;2022-07-24T10:09:51;4.30;;;2.47;;
51852;SDS011;37894;53.172;6.598;2022-07-24T10:14:49;6.72;;;2.53;;
51852;SDS011;37894;53.172;6.598;2022-07-24T10:17:16;4.90;;;2.83;;
51852;SDS011;37894;53.172;6.598;2022-07-24T10:22:16;5.78;;;3.10;;
51852;SDS011;37894;53.172;6.598;2022-07-24T10:27:35;5.90;;;2.60;;
51852;SDS011;37894;53.172;6.598;2022-07-24T10:32:30;3.45;;;2.35;;
51852;SDS011;37894;53.172;6.598;2022-07-24T10:35:02;5.53;;;2.42;;
51852;SDS011;37894;53.172;6.598;2022-07-24T10:40:13;4.97;;;2.53;;
51852;SDS011;37894;53.172;6.598;2022-07-24T10:45:34;6.40;;;2.72;;
51852;SDS011;37894;53.172;6.598;2022-07-24T10:51:01;4.45;;;2.30;;
51852;SDS011;37894;53.172;6.598;2022-07-24T10:56:20;5.32;;;2.42;;
51852;SDS011;37894;53.172;6.598;2022-07-24T10:58:58;5.18;;;2.40;;
51852;SDS011;37894;53.172;6.598;2022-07-24T11:07:03;3.53;;;2.10;;
51852;SDS011;37894;53.172;6.598;2022-07-24T11:09:36;4.30;;;2.28;;
51852;SDS011;37894;53.172;6.598;2022-07-24T11:12:26;3.42;;;2.33;;
51852;SDS011;37894;53.172;6.598;2022-07-24T11:14:56;4.05;;;2.35;;
51852;SDS011;37894;53.172;6.598;2022-07-24T11:17:45;4.38;;;2.60;;
51852;SDS011;37894;53.172;6.598;2022-07-24T11:20:16;3.75;;;2.05;;
51852;SDS011;37894;53.172;6.598;2022-07-24T11:22:47;4.57;;;2.45;;
51852;SDS011;37894;53.172;6.598;2022-07-24T11:25:18;5.28;;;2.55;;
51852;SDS011;37894;53.172;6.598;2022-07-24T11:27:47;5.70;;;2.65;;
51852;SDS011;37894;53.172;6.598;2022-07-24T11:30:27;4.53;;;2.42;;
51852;SDS011;37894;53.172;6.598;2022-07-24T11:32:55;4.82;;;2.28;;
51852;SDS011;37894;53.172;6.598;2022-07-24T11:35:28;4.20;;;2.20;;
51852;SDS011;37894;53.172;6.598;2022-07-24T11:37:55;4.63;;;2.13;;
51852;SDS011;37894;53.172;6.598;2022-07-24T11:40:21;3.95;;;2.00;;
51852;SDS011;37894;53.172;6.598;2022-07-24T11:42:53;3.10;;;2.10;;
51852;SDS011;37894;53.172;6.598;2022-07-24T11:45:22;6.40;;;2.30;;
51852;SDS011;37894;53.172;6.598;2022-07-24T11:47:48;3.70;;;2.03;;
51852;SDS011;37894;53.172;6.598;2022-07-24T11:50:19;4.68;;;2.10;;
51852;SDS011;37894;53.172;6.598;2022-07-24T11:52:45;5.18;;;2.45;;
51852;SDS011;37894;53.172;6.598;2022-07-24T11:55:13;5.40;;;2.08;;
51852;SDS011;37894;53.172;6.598;2022-07-24T11:57:40;3.72;;;2.20;;
51852;SDS011;37894;53.172;6.598;2022-07-24T12:00:11;4.10;;;2.45;;
51852;SDS011;37894;53.172;6.598;2022-07-24T12:02:46;3.55;;;1.90;;
51852;SDS011;37894;53.172;6.598;2022-07-24T12:07:52;4.20;;;2.00;;
51852;SDS011;37894;53.172;6.598;2022-07-24T12:10:19;3.78;;;2.17;;
51852;SDS011;37894;53.172;6.598;2022-07-24T12:12:46;3.65;;;2.50;;
51852;SDS011;37894;53.172;6.598;2022-07-24T12:15:15;4.63;;;2.40;;
51852;SDS011;37894;53.172;6.598;2022-07-24T12:20:24;4.60;;;2.22;;
51852;SDS011;37894;53.172;6.598;2022-07-24T12:22:53;4.85;;;2.50;;
51852;SDS011;37894;53.172;6.598;2022-07-24T12:25:19;5.05;;;2.40;;
51852;SDS011;37894;53.172;6.598;2022-07-24T12:27:45;4.68;;;2.03;;
51852;SDS011;37894;53.172;6.598;2022-07-24T12:30:18;3.78;;;2.38;;
51852;SDS011;37894;53.172;6.598;2022-07-24T12:35:28;4.88;;;2.10;;
51852;SDS011;37894;53.172;6.598;2022-07-24T12:37:56;3.17;;;2.03;;
51852;SDS011;37894;53.172;6.598;2022-07-24T12:40:29;7.43;;;2.40;;
51852;SDS011;37894;53.172;6.598;2022-07-24T12:45:28;3.55;;;2.10;;
51852;SDS011;37894;53.172;6.598;2022-07-24T12:53:35;5.55;;;3.63;;
51852;SDS011;37894;53.172;6.598;2022-07-24T12:56:10;4.15;;;2.95;;
51852;SDS011;37894;53.172;6.598;2022-07-24T13:01:17;4.97;;;3.00;;
51852;SDS011;37894;53.172;6.598;2022-07-24T13:03:51;3.35;;;2.47;;
51852;SDS011;37894;53.172;6.598;2022-07-24T13:06:37;4.53;;;2.00;;
51852;SDS011;37894;53.172;6.598;2022-07-24T13:09:05;3.90;;;2.38;;
51852;SDS011;37894;53.172;6.598;2022-07-24T13:11:31;3.85;;;1.92;;
51852;SDS011;37894;53.172;6.598;2022-07-24T13:13:57;2.95;;;1.92;;
51852;SDS011;37894;53.172;6.598;2022-07-24T13:16:26;4.50;;;2.00;;
51852;SDS011;37894;53.172;6.598;2022-07-24T13:18:56;6.53;;;2.22;;
51852;SDS011;37894;53.172;6.598;2022-07-24T13:21:21;5.50;;;2.30;;
51852;SDS011;37894;53.172;6.598;2022-07-24T13:23:47;4.45;;;1.95;;
51852;SDS011;37894;53.172;6.598;2022-07-24T13:26:13;5.20;;;2.17;;
51852;SDS011;37894;53.172;6.598;2022-07-24T13:28:38;3.42;;;1.95;;
51852;SDS011;37894;53.172;6.598;2022-07-24T13:31:04;4.57;;;2.70;;
51852;SDS011;37894;53.172;6.598;2022-07-24T13:33:30;3.05;;;2.05;;
51852;SDS011;37894;53.172;6.598;2022-07-24T13:35:56;4.03;;;2.17;;
51852;SDS011;37894;53.172;6.598;2022-07-24T13:38:22;4.18;;;2.00;;
51852;SDS011;37894;53.172;6.598;2022-07-24T13:40:48;5.20;;;2.38;;
51852;SDS011;37894;53.172;6.598;2022-07-24T13:43:13;3.72;;;1.92;;
51852;SDS011;37894;53.172;6.598;2022-07-24T13:45:39;5.25;;;2.20;;
51852;SDS011;37894;53.172;6.598;2022-07-24T13:48:05;3.67;;;2.17;;
51852;SDS011;37894;53.172;6.598;2022-07-24T13:50:30;5.97;;;2.28;;
51852;SDS011;37894;53.172;6.598;2022-07-24T13:52:56;3.83;;;2.15;;
51852;SDS011;37894;53.172;6.598;2022-07-24T13:55:22;3.17;;;1.92;;
51852;SDS011;37894;53.172;6.598;2022-07-24T13:57:47;3.58;;;2.50;;
51852;SDS011;37894;53.172;6.598;2022-07-24T14:00:13;6.50;;;2.45;;
51852;SDS011;37894;53.172;6.598;2022-07-24T14:02:39;5.63;;;2.30;;
51852;SDS011;37894;53.172;6.598;2022-07-24T14:05:05;3.15;;;2.00;;
51852;SDS011;37894;53.172;6.598;2022-07-24T14:07:31;4.63;;;2.00;;
51852;SDS011;37894;53.172;6.598;2022-07-24T14:09:57;3.85;;;2.28;;
51852;SDS011;37894;53.172;6.598;2022-07-24T14:12:22;4.43;;;2.28;;
51852;SDS011;37894;53.172;6.598;2022-07-24T14:14:49;3.85;;;2.13;;
51852;SDS011;37894;53.172;6.598;2022-07-24T14:17:15;4.88;;;2.15;;
51852;SDS011;37894;53.172;6.598;2022-07-24T14:19:41;6.13;;;2.30;;
51852;SDS011;37894;53.172;6.598;2022-07-24T14:22:07;3.40;;;2.10;;
51852;SDS011;37894;53.172;6.598;2022-07-24T14:24:32;5.75;;;2.45;;
51852;SDS011;37894;53.172;6.598;2022-07-24T14:26:58;5.43;;;2.20;;
51852;SDS011;37894;53.172;6.598;2022-07-24T14:29:24;4.07;;;2.33;;
51852;SDS011;37894;53.172;6.598;2022-07-24T14:31:49;5.65;;;2.33;;
51852;SDS011;37894;53.172;6.598;2022-07-24T14:34:15;3.78;;;2.38;;
51852;SDS011;37894;53.172;6.598;2022-07-24T14:36:41;5.78;;;2.30;;
51852;SDS011;37894;53.172;6.598;2022-07-24T14:39:07;3.83;;;2.47;;
51852;SDS011;37894;53.172;6.598;2022-07-24T14:41:33;5.50;;;2.90;;
51852;SDS011;37894;53.172;6.598;2022-07-24T14:44:00;4.30;;;2.80;;
51852;SDS011;37894;53.172;6.598;2022-07-24T14:46:25;4.28;;;2.58;;
51852;SDS011;37894;53.172;6.598;2022-07-24T14:48:51;3.75;;;2.22;;
51852;SDS011;37894;53.172;6.598;2022-07-24T14:51:17;3.53;;;2.15;;
51852;SDS011;37894;53.172;6.598;2022-07-24T14:53:43;4.13;;;2.40;;
51852;SDS011;37894;53.172;6.598;2022-07-24T14:56:08;3.45;;;2.22;;
51852;SDS011;37894;53.172;6.598;2022-07-24T14:58:35;4.03;;;2.20;;
51852;SDS011;37894;53.172;6.598;2022-07-24T15:01:00;3.50;;;2.30;;
51852;SDS011;37894;53.172;6.598;2022-07-24T15:03:26;9.27;;;2.47;;
51852;SDS011;37894;53.172;6.598;2022-07-24T15:05:52;4.07;;;2.30;;
51852;SDS011;37894;53.172;6.598;2022-07-24T15:08:18;3.97;;;2.50;;
51852;SDS011;37894;53.172;6.598;2022-07-24T15:10:43;3.38;;;2.28;;
51852;SDS011;37894;53.172;6.598;2022-07-24T15:13:09;3.58;;;2.35;;
51852;SDS011;37894;53.172;6.598;2022-07-24T15:15:34;3.65;;;2.28;;
51852;SDS011;37894;53.172;6.598;2022-07-24T15:18:00;4.07;;;2.70;;
51852;SDS011;37894;53.172;6.598;2022-07-24T15:20:26;5.65;;;2.55;;
51852;SDS011;37894;53.172;6.598;2022-07-24T15:22:51;4.05;;;2.60;;
51852;SDS011;37894;53.172;6.598;2022-07-24T15:25:17;3.83;;;2.30;;
51852;SDS011;37894;53.172;6.598;2022-07-24T15:27:42;4.00;;;2.20;;
51852;SDS011;37894;53.172;6.598;2022-07-24T15:30:10;4.50;;;2.10;;
51852;SDS011;37894;53.172;6.598;2022-07-24T15:32:41;3.80;;;2.35;;
51852;SDS011;37894;53.172;6.598;2022-07-24T15:35:07;4.78;;;2.28;;